createdAt,value
2022-10-11T00:00:19.148Z,7.20
2022-10-11T00:03:06.989Z,7.10
2022-10-11T00:05:55.237Z,7.20
2022-10-11T00:08:44.060Z,7.30
2022-10-11T00:11:32.222Z,7.20
2022-10-11T00:14:21.080Z,7.20
2022-10-11T00:17:09.031Z,7.30
2022-10-11T00:19:56.888Z,7.40
2022-10-11T00:22:44.633Z,7.30
2022-10-11T00:25:34.176Z,7.30
2022-10-11T00:28:22.212Z,7.50
2022-10-11T00:31:10.076Z,7.30
2022-10-11T00:33:58.233Z,7.30
2022-10-11T00:36:45.987Z,7.30
2022-10-11T00:39:33.455Z,7.30
2022-10-11T00:42:22.213Z,7.30
2022-10-11T00:45:28.783Z,7.30
2022-10-11T00:48:18.723Z,7.30
2022-10-11T00:51:08.196Z,7.20
2022-10-11T00:53:56.217Z,7.20
2022-10-11T00:56:45.341Z,7.10
2022-10-11T00:59:37.902Z,7.00
2022-10-11T01:02:25.426Z,7.00
2022-10-11T01:05:29.061Z,5.30
2022-10-11T01:08:17.704Z,6.90
2022-10-11T01:11:05.026Z,6.70
2022-10-11T01:13:59.717Z,6.60
2022-10-11T01:16:51.293Z,6.40
2022-10-11T01:20:02.897Z,6.40
2022-10-11T01:23:05.103Z,6.30
2022-10-11T01:25:58.807Z,6.40
2022-10-11T01:28:50.688Z,6.30
2022-10-11T01:31:43.128Z,6.20
2022-10-11T01:34:34.447Z,6.10
2022-10-11T01:37:25.644Z,6.00
2022-10-11T01:40:15.726Z,6.10
2022-10-11T01:43:04.040Z,5.90
2022-10-11T01:45:52.740Z,5.80
2022-10-11T01:48:52.736Z,6.00
2022-10-11T01:51:45.221Z,5.80
2022-10-11T01:55:08.155Z,5.80
2022-10-11T01:58:05.794Z,5.80
2022-10-11T02:00:57.020Z,5.80
2022-10-11T02:03:47.410Z,5.70
2022-10-11T02:06:39.192Z,5.70
2022-10-11T02:09:31.629Z,5.90
2022-10-11T02:12:23.652Z,5.80
2022-10-11T02:15:14.072Z,5.70
2022-10-11T02:18:03.009Z,5.70
2022-10-11T02:20:51.471Z,5.60
2022-10-11T02:23:42.378Z,5.60
2022-10-11T02:26:31.929Z,5.60
2022-10-11T02:29:19.734Z,5.80
2022-10-11T02:32:08.244Z,4.30
2022-10-11T02:34:56.757Z,6.10
2022-10-11T02:37:49.674Z,5.40
2022-10-11T02:40:41.684Z,5.40
2022-10-11T02:43:31.931Z,5.30
2022-10-11T02:46:19.834Z,5.30
2022-10-11T02:49:08.802Z,5.20
2022-10-11T02:51:57.354Z,5.20
2022-10-11T02:54:45.762Z,5.10
2022-10-11T02:57:35.204Z,5.20
2022-10-11T03:00:22.952Z,5.00
2022-10-11T03:03:11.020Z,5.00
2022-10-11T03:06:02.607Z,5.00
2022-10-11T03:08:50.744Z,5.00
2022-10-11T03:11:38.073Z,5.10
2022-10-11T03:14:27.347Z,5.00
2022-10-11T03:17:35.067Z,4.90
2022-10-11T03:20:22.428Z,4.90
2022-10-11T03:23:10.699Z,4.80
2022-10-11T03:25:58.139Z,4.90
2022-10-11T03:28:45.453Z,4.70
2022-10-11T03:31:34.941Z,4.70
2022-10-11T03:34:22.393Z,4.60
2022-10-11T03:37:10.730Z,4.50
2022-10-11T03:39:58.312Z,4.50
2022-10-11T03:42:45.717Z,4.30
2022-10-11T03:45:33.477Z,4.40
2022-10-11T03:48:22.550Z,4.40
2022-10-11T03:51:11.493Z,4.50
2022-10-11T03:53:59.017Z,4.40
2022-10-11T03:56:47.207Z,4.30
2022-10-11T03:59:35.311Z,4.40
2022-10-11T04:02:22.711Z,4.40
2022-10-11T04:05:12.794Z,4.40
2022-10-11T04:08:00.334Z,4.40
2022-10-11T04:10:49.425Z,4.40
2022-10-11T04:13:37.726Z,4.40
2022-10-11T04:16:25.794Z,4.30
2022-10-11T04:19:16.640Z,4.30
2022-10-11T04:22:06.131Z,3.00
2022-10-11T04:24:54.372Z,4.30
2022-10-11T04:27:42.390Z,4.30
2022-10-11T04:30:30.441Z,4.20
2022-10-11T04:33:17.515Z,4.20
2022-10-11T04:36:05.973Z,4.30
2022-10-11T04:38:56.502Z,4.30
2022-10-11T04:41:44.772Z,4.20
2022-10-11T04:44:32.369Z,4.20
2022-10-11T04:47:20.592Z,4.20
2022-10-11T04:50:08.823Z,4.00
2022-10-11T04:52:56.410Z,4.10
2022-10-11T04:55:59.425Z,4.10
2022-10-11T04:59:20.087Z,4.10
2022-10-11T05:02:07.992Z,4.10
2022-10-11T05:04:55.878Z,4.10
2022-10-11T05:07:44.559Z,4.10
2022-10-11T05:10:32.062Z,4.10
2022-10-11T05:13:20.953Z,4.10
2022-10-11T05:16:11.101Z,3.00
2022-10-11T05:18:59.642Z,6.00
2022-10-11T05:21:51.689Z,4.10
2022-10-11T05:24:39.099Z,4.10
2022-10-11T05:27:27.224Z,4.50
2022-10-11T05:30:16.118Z,4.00
2022-10-11T05:33:03.999Z,4.00
2022-10-11T05:35:52.092Z,4.00
2022-10-11T05:38:40.507Z,4.00
2022-10-11T05:41:29.351Z,4.00
2022-10-11T05:44:17.993Z,4.10
2022-10-11T05:47:10.040Z,4.00
2022-10-11T05:49:58.400Z,3.90
2022-10-11T05:52:46.446Z,4.00
2022-10-11T05:55:36.753Z,4.10
2022-10-11T05:58:24.632Z,4.50
2022-10-11T06:01:19.766Z,4.40
2022-10-11T06:04:09.410Z,4.40
2022-10-11T06:06:56.869Z,4.10
2022-10-11T06:09:45.215Z,4.00
2022-10-11T06:12:33.071Z,4.00
2022-10-11T06:15:21.584Z,4.00
2022-10-11T06:18:09.695Z,4.00
2022-10-11T06:21:00.736Z,4.00
2022-10-11T06:23:58.349Z,4.50
2022-10-11T06:26:50.070Z,4.10
2022-10-11T06:29:38.382Z,4.20
2022-10-11T06:32:26.038Z,4.20
2022-10-11T06:35:34.848Z,4.20
2022-10-11T06:38:24.140Z,4.30
2022-10-11T06:41:12.704Z,4.20
2022-10-11T06:44:01.104Z,2.50
2022-10-11T06:46:48.461Z,5.90
2022-10-11T06:49:35.696Z,3.10
2022-10-11T06:55:26.988Z,4.40
2022-10-11T06:58:16.026Z,4.80
2022-10-11T07:01:05.226Z,4.50
2022-10-11T07:03:53.531Z,4.50
2022-10-11T07:06:42.784Z,3.00
2022-10-11T07:09:31.088Z,4.80
2022-10-11T07:12:23.532Z,5.50
2022-10-11T07:15:12.319Z,5.10
2022-10-11T07:18:02.896Z,4.60
2022-10-11T07:20:50.327Z,4.60
2022-10-11T07:23:38.742Z,4.70
2022-10-11T07:26:26.858Z,6.50
2022-10-11T07:29:16.248Z,4.90
2022-10-11T07:32:06.136Z,5.00
2022-10-11T07:34:53.664Z,5.10
2022-10-11T07:37:41.165Z,5.30
2022-10-11T07:40:29.731Z,5.30
2022-10-11T07:43:20.581Z,6.10
2022-10-11T07:46:10.919Z,5.50
2022-10-11T07:49:00.145Z,5.60
2022-10-11T07:51:48.125Z,5.70
2022-10-11T07:54:35.564Z,5.70
2022-10-11T07:57:27.047Z,5.80
2022-10-11T08:00:18.206Z,5.90
2022-10-11T08:03:08.220Z,6.80
2022-10-11T08:06:00.399Z,6.20
2022-10-11T08:08:51.108Z,6.20
2022-10-11T08:11:39.609Z,6.20
2022-10-11T08:14:30.735Z,6.30
2022-10-11T08:17:18.131Z,6.40
2022-10-11T08:20:08.746Z,6.50
2022-10-11T08:22:56.926Z,6.60
2022-10-11T08:25:48.303Z,6.70
2022-10-11T08:28:37.387Z,6.50
2022-10-11T08:31:26.424Z,6.80
2022-10-11T08:34:16.950Z,6.90
2022-10-11T08:37:13.149Z,7.00
2022-10-11T08:40:04.624Z,7.70
2022-10-11T08:42:56.894Z,7.20
2022-10-11T08:45:47.862Z,7.40
2022-10-11T08:48:39.884Z,7.40
2022-10-11T08:51:29.624Z,7.50
2022-10-11T08:54:28.658Z,7.60
2022-10-11T08:57:18.194Z,7.70
2022-10-11T09:00:07.584Z,7.90
2022-10-11T09:03:08.580Z,8.00
2022-10-11T09:06:02.988Z,8.20
2022-10-11T09:08:59.935Z,8.20
2022-10-11T09:11:53.936Z,8.40
2022-10-11T09:14:55.588Z,8.50
2022-10-11T09:17:50.930Z,8.60
2022-10-11T09:20:47.500Z,8.60
2022-10-11T09:23:53.228Z,9.50
2022-10-11T09:26:43.690Z,8.80
2022-10-11T09:29:47.506Z,8.90
2022-10-11T09:32:37.695Z,9.80
2022-10-11T09:35:25.842Z,10.10
2022-10-11T09:38:18.257Z,9.40
2022-10-11T09:41:10.990Z,9.50
2022-10-11T09:43:59.340Z,9.70
2022-10-11T09:46:51.091Z,11.60
2022-10-11T09:49:41.688Z,9.90
2022-10-11T09:52:29.293Z,10.10
2022-10-11T09:55:31.536Z,10.20
2022-10-11T09:58:28.414Z,10.30
2022-10-11T10:01:25.009Z,10.50
2022-10-11T10:04:17.259Z,10.60
2022-10-11T10:07:12.939Z,10.70
2022-10-11T10:10:01.302Z,11.00
2022-10-11T10:12:54.582Z,11.00
2022-10-11T10:15:46.687Z,11.10
2022-10-11T10:18:36.012Z,11.20
2022-10-11T10:21:33.081Z,11.20
2022-10-11T10:24:22.084Z,11.40
2022-10-11T10:27:18.619Z,13.40
2022-10-11T10:30:14.648Z,10.80
2022-10-11T10:33:05.052Z,11.70
2022-10-11T10:35:55.245Z,11.80
2022-10-11T10:38:51.892Z,11.90
2022-10-11T10:41:40.870Z,12.10
2022-10-11T10:44:28.622Z,12.30
2022-10-11T10:47:20.425Z,12.30
2022-10-11T10:50:09.939Z,11.90
2022-10-11T10:53:07.118Z,12.40
2022-10-11T10:56:01.700Z,12.40
2022-10-11T10:58:59.283Z,12.50
2022-10-11T11:01:51.572Z,12.50
2022-10-11T11:04:40.026Z,12.70
2022-10-11T11:07:31.619Z,12.90
2022-10-11T11:10:24.865Z,13.50
2022-10-11T11:13:22.221Z,13.00
2022-10-11T11:16:14.475Z,13.10
2022-10-11T11:19:07.803Z,13.20
2022-10-11T11:21:59.069Z,13.60
2022-10-11T11:24:50.082Z,13.50
2022-10-11T11:27:42.864Z,13.60
2022-10-11T11:30:36.792Z,13.60
2022-10-11T11:33:33.704Z,13.70
2022-10-11T11:36:25.952Z,13.70
2022-10-11T11:39:17.033Z,13.70
2022-10-11T11:42:08.977Z,13.90
2022-10-11T11:44:58.570Z,13.80
2022-10-11T11:47:51.818Z,13.80
2022-10-11T11:50:40.338Z,13.90
2022-10-11T11:53:36.206Z,14.00
2022-10-11T11:56:28.025Z,14.00
2022-10-11T11:59:18.003Z,14.00
2022-10-11T12:02:17.951Z,14.00
2022-10-11T12:05:08.322Z,14.00
2022-10-11T12:07:58.627Z,14.30
2022-10-11T12:10:55.947Z,14.10
2022-10-11T12:13:44.751Z,14.20
2022-10-11T12:16:33.369Z,14.20
2022-10-11T12:19:21.770Z,14.30
2022-10-11T12:22:20.090Z,14.30
2022-10-11T12:25:35.413Z,14.20
2022-10-11T12:28:42.202Z,14.10
2022-10-11T12:31:31.131Z,14.10
2022-10-11T12:34:34.498Z,14.20
2022-10-11T12:37:41.088Z,14.30
2022-10-11T12:40:41.984Z,14.30
2022-10-11T12:43:37.540Z,14.30
2022-10-11T12:46:39.527Z,14.20
2022-10-11T12:49:33.528Z,14.20
2022-10-11T12:52:30.624Z,14.20
2022-10-11T12:55:27.567Z,14.00
2022-10-11T12:58:28.383Z,14.30
2022-10-11T13:01:21.838Z,14.30
2022-10-11T13:04:11.618Z,14.30
2022-10-11T13:07:06.902Z,14.30
2022-10-11T13:09:55.886Z,14.40
2022-10-11T13:12:47.197Z,14.50
2022-10-11T13:15:40.256Z,14.60
2022-10-11T13:18:28.810Z,14.50
2022-10-11T13:21:21.541Z,14.50
2022-10-11T13:24:14.171Z,14.50
2022-10-11T13:27:03.213Z,14.60
2022-10-11T13:29:52.281Z,14.60
2022-10-11T13:32:41.114Z,14.60
2022-10-11T13:35:31.720Z,14.60
2022-10-11T13:38:21.664Z,14.70
2022-10-11T13:41:13.016Z,14.80
2022-10-11T13:44:01.203Z,14.70
2022-10-11T13:46:49.790Z,14.80
2022-10-11T13:49:40.213Z,14.90
2022-10-11T13:52:28.232Z,15.00
2022-10-11T13:55:24.967Z,15.00
2022-10-11T13:58:18.912Z,15.20
2022-10-11T14:01:08.288Z,15.10
2022-10-11T14:03:57.939Z,15.10
2022-10-11T14:06:49.287Z,15.40
2022-10-11T14:09:39.242Z,15.90
2022-10-11T14:12:31.941Z,15.10
2022-10-11T14:15:25.302Z,15.10
2022-10-11T14:18:34.768Z,15.20
2022-10-11T14:21:29.997Z,15.30
2022-10-11T14:24:19.409Z,15.30
2022-10-11T14:27:08.389Z,15.20
2022-10-11T14:30:20.375Z,15.10
2022-10-11T14:33:06.682Z,15.00
2022-10-11T14:35:54.073Z,15.00
2022-10-11T14:38:41.515Z,15.00
2022-10-11T14:41:31.044Z,15.00
2022-10-11T14:44:19.291Z,15.00
2022-10-11T14:47:07.632Z,15.00
2022-10-11T14:49:55.623Z,14.90
2022-10-11T14:52:43.392Z,15.20
2022-10-11T14:55:31.927Z,15.00
2022-10-11T14:58:21.115Z,14.90
2022-10-11T15:01:11.594Z,14.80
2022-10-11T15:03:59.019Z,14.80
2022-10-11T15:06:46.652Z,14.80
2022-10-11T15:09:34.432Z,14.80
2022-10-11T15:12:21.668Z,14.80
2022-10-11T15:15:16.086Z,14.80
2022-10-11T15:18:05.042Z,14.80
2022-10-11T15:20:55.262Z,14.70
2022-10-11T15:23:42.809Z,14.70
2022-10-11T15:26:30.817Z,14.60
2022-10-11T15:29:20.429Z,14.60
2022-10-11T15:32:09.877Z,14.70
2022-10-11T15:34:57.484Z,14.60
2022-10-11T15:37:45.230Z,14.60
2022-10-11T15:40:34.962Z,14.60
2022-10-11T15:43:25.034Z,14.50
2022-10-11T15:46:14.143Z,14.40
2022-10-11T15:49:06.633Z,14.30
2022-10-11T15:51:54.752Z,14.20
2022-10-11T15:54:42.463Z,14.20
2022-10-11T15:57:29.968Z,14.10
2022-10-11T16:00:22.118Z,14.10
2022-10-11T16:03:12.125Z,14.10
2022-10-11T16:06:05.212Z,13.90
2022-10-11T16:08:54.878Z,13.90
2022-10-11T16:11:43.041Z,13.70
2022-10-11T16:14:31.362Z,13.60
2022-10-11T16:17:20.708Z,13.60
2022-10-11T16:20:08.963Z,13.60
2022-10-11T16:22:58.347Z,13.40
2022-10-11T16:25:49.671Z,13.30
2022-10-11T16:28:42.150Z,13.20
2022-10-11T16:31:29.983Z,13.10
2022-10-11T16:34:17.557Z,12.90
2022-10-11T16:37:05.206Z,13.00
2022-10-11T16:39:54.619Z,12.90
2022-10-11T16:42:42.178Z,12.70
2022-10-11T16:45:29.747Z,12.60
2022-10-11T16:48:17.657Z,12.40
2022-10-11T16:51:08.982Z,12.20
2022-10-11T16:53:56.538Z,11.70
2022-10-11T16:56:46.615Z,12.10
2022-10-11T16:59:35.116Z,11.90
2022-10-11T17:02:24.579Z,11.80
2022-10-11T17:05:13.617Z,11.70
2022-10-11T17:08:01.358Z,11.60
2022-10-11T17:10:53.519Z,11.50
2022-10-11T17:13:42.563Z,10.90
2022-10-11T17:16:30.559Z,11.30
2022-10-11T17:19:18.863Z,11.20
2022-10-11T17:22:06.905Z,11.10
2022-10-11T17:24:54.787Z,11.00
2022-10-11T17:27:42.968Z,10.90
2022-10-11T17:30:34.317Z,10.80
2022-10-11T17:33:21.999Z,10.80
2022-10-11T17:36:22.172Z,10.70
2022-10-11T17:39:10.655Z,10.70
2022-10-11T17:41:58.488Z,10.70
2022-10-11T17:44:46.156Z,10.50
2022-10-11T17:47:35.821Z,10.60
2022-10-11T17:50:23.616Z,10.60
2022-10-11T17:53:11.534Z,10.50
2022-10-11T17:56:00.913Z,10.50
2022-10-11T17:58:49.572Z,10.50
2022-10-11T18:01:37.716Z,10.50
2022-10-11T18:04:29.870Z,10.50
2022-10-11T18:07:17.056Z,10.50
2022-10-11T18:10:04.713Z,10.40
2022-10-11T18:12:53.862Z,10.30
2022-10-11T18:15:41.665Z,10.20
2022-10-11T18:18:28.983Z,10.30
2022-10-11T18:21:19.681Z,10.10
2022-10-11T18:24:11.007Z,10.00
2022-10-11T18:26:59.307Z,10.00
2022-10-11T18:29:47.097Z,9.90
2022-10-11T18:32:35.104Z,9.90
2022-10-11T18:35:22.885Z,9.80
2022-10-11T18:38:12.559Z,9.70
2022-10-11T18:41:05.318Z,9.60
2022-10-11T18:43:53.738Z,9.50
2022-10-11T18:46:41.581Z,9.50
2022-10-11T18:49:29.039Z,9.50
2022-10-11T18:52:17.143Z,9.30
2022-10-11T18:55:06.341Z,9.30
2022-10-11T18:57:54.089Z,9.20
2022-10-11T19:00:41.821Z,9.20
2022-10-11T19:03:34.802Z,9.20
2022-10-11T19:06:24.901Z,9.10
2022-10-11T19:09:13.054Z,9.10
2022-10-11T19:12:01.784Z,9.00
2022-10-11T19:14:49.691Z,9.00
2022-10-11T19:17:37.030Z,8.90
2022-10-11T19:20:24.957Z,8.80
2022-10-11T19:23:13.721Z,8.80
2022-10-11T19:26:01.109Z,8.70
2022-10-11T19:28:55.501Z,8.70
2022-10-11T19:31:44.821Z,8.90
2022-10-11T19:34:32.921Z,9.40
2022-10-11T19:37:20.953Z,8.50
2022-10-11T19:40:10.110Z,8.30
2022-10-11T19:42:57.818Z,8.30
2022-10-11T19:45:47.530Z,6.70
2022-10-11T19:48:37.185Z,8.30
2022-10-11T19:51:26.666Z,8.10
2022-10-11T19:54:15.874Z,8.00
2022-10-11T19:57:03.698Z,8.00
2022-10-11T19:59:51.315Z,8.00
2022-10-11T20:02:41.080Z,7.90
2022-10-11T20:05:29.316Z,7.80
2022-10-11T20:08:16.816Z,7.80
2022-10-11T20:11:06.410Z,7.80
2022-10-11T20:13:55.161Z,7.80
2022-10-11T20:16:42.901Z,7.70
2022-10-11T20:19:31.995Z,7.80
2022-10-11T20:22:20.460Z,7.70
2022-10-11T20:25:08.515Z,7.70
2022-10-11T20:27:55.788Z,7.60
2022-10-11T20:30:44.526Z,7.60
2022-10-11T20:33:37.319Z,7.60
2022-10-11T20:36:29.729Z,7.60
2022-10-11T20:39:18.026Z,7.60
2022-10-11T20:42:05.550Z,7.50
2022-10-11T20:44:53.229Z,7.50
2022-10-11T20:47:41.015Z,7.40
2022-10-11T20:50:29.156Z,7.40
2022-10-11T20:53:19.721Z,9.10
2022-10-11T20:56:09.785Z,7.30
2022-10-11T20:58:57.813Z,7.20
2022-10-11T21:01:45.267Z,7.50
2022-10-11T21:04:33.385Z,7.10
2022-10-11T21:07:21.348Z,7.00
2022-10-11T21:10:10.348Z,7.00
2022-10-11T21:12:58.764Z,6.90
2022-10-11T21:15:46.694Z,6.90
2022-10-11T21:18:34.796Z,6.90
2022-10-11T21:21:23.934Z,6.90
2022-10-11T21:24:11.928Z,6.90
2022-10-11T21:27:02.985Z,6.90
2022-10-11T21:29:50.773Z,6.80
2022-10-11T21:32:38.510Z,6.70
2022-10-11T21:35:26.221Z,6.80
2022-10-11T21:38:14.064Z,6.80
2022-10-11T21:41:03.569Z,6.80
2022-10-11T21:43:53.295Z,5.00
2022-10-11T21:47:05.474Z,6.70
2022-10-11T21:49:48.941Z,6.60
2022-10-11T21:52:37.697Z,6.60
2022-10-11T21:55:25.282Z,6.50
2022-10-11T21:58:13.303Z,6.40
2022-10-11T22:01:02.713Z,7.10
2022-10-11T22:03:50.598Z,6.30
2022-10-11T22:06:39.264Z,6.30
2022-10-11T22:09:28.549Z,5.70
2022-10-11T22:12:15.879Z,6.30
2022-10-11T22:15:03.517Z,6.30
2022-10-11T22:17:52.909Z,6.20
2022-10-11T22:20:40.666Z,6.20
2022-10-11T22:23:27.956Z,6.10
2022-10-11T22:26:16.689Z,6.10
2022-10-11T22:29:04.975Z,6.20
2022-10-11T22:31:52.938Z,6.00
2022-10-11T22:34:41.913Z,6.10
2022-10-11T22:37:30.418Z,6.10
2022-10-11T22:40:18.470Z,6.10
2022-10-11T22:43:06.039Z,6.10
2022-10-11T22:45:54.555Z,6.00
2022-10-11T22:48:42.189Z,5.00
2022-10-11T22:51:31.525Z,6.00
2022-10-11T22:54:19.422Z,6.00
2022-10-11T22:57:10.187Z,5.00
2022-10-11T22:59:58.273Z,6.00
2022-10-11T23:02:46.236Z,5.90
2022-10-11T23:05:33.697Z,5.90
2022-10-11T23:08:23.328Z,5.90
2022-10-11T23:11:11.982Z,5.80
2022-10-11T23:14:00.095Z,5.70
2022-10-11T23:16:48.411Z,5.60
2022-10-11T23:19:37.012Z,5.50
2022-10-11T23:22:25.026Z,5.40
2022-10-11T23:25:13.968Z,5.40
2022-10-11T23:28:01.429Z,5.30
2022-10-11T23:30:49.786Z,5.30
2022-10-11T23:33:38.311Z,5.30
2022-10-11T23:36:26.994Z,5.30
2022-10-11T23:39:16.175Z,5.20
2022-10-11T23:42:05.151Z,5.20
2022-10-11T23:44:54.387Z,5.20
2022-10-11T23:47:42.293Z,5.10
2022-10-11T23:50:30.139Z,5.10
2022-10-11T23:53:18.109Z,5.00
2022-10-11T23:56:07.991Z,5.00
2022-10-11T23:58:57.065Z,4.80
